Hayase Maru — JD2583 — position and weather

sailwx.info

Track history (hours):
 
Tides and Currents Weather Stations Pressure Air Temp Water Temp Dewpoint Dewpoint Depression Visibility Wind Speed Wind Dir Waves Ship Positions

Hayase Maru

Last reported at 2016-Dec-09 15:25 UTC. Time now 2016-Dec-11 04:12 UTC.
Position N 34°38' E 134°51'.

Length 73 m; draft 4 m.

Type: Ship. MMSI: 431000395.

Date/timePositionNaut miles runAvg speedWind from/ knotsBaromVisibWave heightAir tempDewpointWater temp
2016-Dec-09 15:25N 34°38' E 134°51'9 9.5
2016-Dec-09 14:29N 34°37' E 135°01'6 6.9
2016-Dec-09 13:33N 34°31' E 135°04'1410.5
2016-Dec-09 12:13N 34°18' E 134°59'6 9.6
2016-Dec-09 11:33N 34°11' E 134°60'242 9.3
2016-Dec-08 09:33N 35°12' E 139°45'1111.0
2016-Dec-08 08:33N 35°22' E 139°42'9 8.7
2016-Dec-08 07:33N 35°30' E 139°45'0 0.4
2016-Dec-08 06:31N 35°31' E 139°45'0 0.0
2016-Dec-08 05:31N 35°31' E 139°45'0 0.0
2016-Dec-08 04:31N 35°31' E 139°45'0 0.0
2016-Dec-08 03:31N 35°31' E 139°45'0 0.0
2016-Dec-08 02:31N 35°31' E 139°45'0 0.0
2016-Dec-08 01:31N 35°31' E 139°45'0 0.0
2016-Dec-08 00:31N 35°31' E 139°45'0 0.0
2016-Dec-07 23:31N 35°31' E 139°45'0 0.0
2016-Dec-07 22:28N 35°31' E 139°45'0 0.0
2016-Dec-07 21:31N 35°31' E 139°45'0 0.0
2016-Dec-07 20:31N 35°31' E 139°45'0 0.0
2016-Dec-07 19:31N 35°31' E 139°45'0 0.0
2016-Dec-07 18:31N 35°31' E 139°45'0 0.0
2016-Dec-07 17:31N 35°31' E 139°45'0 0.0
2016-Dec-07 16:31N 35°31' E 139°45'0 0.0
2016-Dec-07 15:31N 35°31' E 139°45'0 0.0
2016-Dec-07 14:31N 35°31' E 139°45'0 0.0
2016-Dec-07 13:31N 35°31' E 139°45'0 0.0
2016-Dec-07 12:31N 35°31' E 139°45'0 0.0
2016-Dec-07 11:31N 35°31' E 139°45'0 0.0
2016-Dec-07 10:31N 35°31' E 139°45'0 0.0
2016-Dec-07 09:31N 35°31' E 139°45'0 0.0
2016-Dec-07 08:31N 35°31' E 139°45'3 2.9
2016-Dec-07 07:32N 35°30' E 139°48'3 3.5
2016-Dec-07 06:33N 35°33' E 139°51'2 0.5
2016-Dec-07 01:32N 35°36' E 139°50'9 9.6
2016-Dec-07 00:33N 35°26' E 139°49'1510.2
2016-Dec-06 23:07N 35°12' E 139°47'611.1
2016-Dec-06 22:33N 35°05' E 139°45'1 0.0
2016-Dec-05 06:24N 35°06' E 139°45'1411.8
2016-Dec-05 05:13N 35°20' E 139°43'711.3
2016-Dec-05 04:33N 35°27' E 139°46'1312.5
2016-Dec-05 03:32N 35°36' E 139°57'3 0.1
2016-Dec-03 05:32N 35°33' E 139°55'1111.5
2016-Dec-03 04:33N 35°24' E 139°46'1010.2
2016-Dec-03 03:33N 35°14' E 139°47'  
Track history (hours):
 
Tides and Currents Weather Stations Pressure Air Temp Water Temp Dewpoint Dewpoint Depression Visibility Wind Speed Wind Dir Waves Ship Positions

Hayase Maru

Last reported at 2016-Dec-09 15:25 UTC. Time now 2016-Dec-11 04:12 UTC.
Position N 34°38' E 134°51'.

Length 73 m; draft 4 m.

Type: Ship. MMSI: 431000395.

Date/timePositionNaut miles runAvg speedWind from/ knotsBaromVisibWave heightAir tempDewpointWater temp
2016-Dec-09 15:25N 34°38' E 134°51'9 9.5
2016-Dec-09 14:29N 34°37' E 135°01'6 6.9
2016-Dec-09 13:33N 34°31' E 135°04'1410.5
2016-Dec-09 12:13N 34°18' E 134°59'6 9.6
2016-Dec-09 11:33N 34°11' E 134°60'242 9.3
2016-Dec-08 09:33N 35°12' E 139°45'1111.0
2016-Dec-08 08:33N 35°22' E 139°42'9 8.7
2016-Dec-08 07:33N 35°30' E 139°45'0 0.4
2016-Dec-08 06:31N 35°31' E 139°45'0 0.0
2016-Dec-08 05:31N 35°31' E 139°45'0 0.0
2016-Dec-08 04:31N 35°31' E 139°45'0 0.0
2016-Dec-08 03:31N 35°31' E 139°45'0 0.0
2016-Dec-08 02:31N 35°31' E 139°45'0 0.0
2016-Dec-08 01:31N 35°31' E 139°45'0 0.0
2016-Dec-08 00:31N 35°31' E 139°45'0 0.0
2016-Dec-07 23:31N 35°31' E 139°45'0 0.0
2016-Dec-07 22:28N 35°31' E 139°45'0 0.0
2016-Dec-07 21:31N 35°31' E 139°45'0 0.0
2016-Dec-07 20:31N 35°31' E 139°45'0 0.0
2016-Dec-07 19:31N 35°31' E 139°45'0 0.0
2016-Dec-07 18:31N 35°31' E 139°45'0 0.0
2016-Dec-07 17:31N 35°31' E 139°45'0 0.0
2016-Dec-07 16:31N 35°31' E 139°45'0 0.0
2016-Dec-07 15:31N 35°31' E 139°45'0 0.0
2016-Dec-07 14:31N 35°31' E 139°45'0 0.0
2016-Dec-07 13:31N 35°31' E 139°45'0 0.0
2016-Dec-07 12:31N 35°31' E 139°45'0 0.0
2016-Dec-07 11:31N 35°31' E 139°45'0 0.0
2016-Dec-07 10:31N 35°31' E 139°45'0 0.0
2016-Dec-07 09:31N 35°31' E 139°45'0 0.0
2016-Dec-07 08:31N 35°31' E 139°45'3 2.9
2016-Dec-07 07:32N 35°30' E 139°48'3 3.5
2016-Dec-07 06:33N 35°33' E 139°51'2 0.5
2016-Dec-07 01:32N 35°36' E 139°50'9 9.6
2016-Dec-07 00:33N 35°26' E 139°49'1510.2
2016-Dec-06 23:07N 35°12' E 139°47'611.1
2016-Dec-06 22:33N 35°05' E 139°45'1 0.0
2016-Dec-05 06:24N 35°06' E 139°45'1411.8
2016-Dec-05 05:13N 35°20' E 139°43'711.3
2016-Dec-05 04:33N 35°27' E 139°46'1312.5
2016-Dec-05 03:32N 35°36' E 139°57'3 0.1
2016-Dec-03 05:32N 35°33' E 139°55'1111.5
2016-Dec-03 04:33N 35°24' E 139°46'1010.2
2016-Dec-03 03:33N 35°14' E 139°47'  

Dump ship's entire track history